MSTAR KORL-KHOU
Flight info
| Callsign | MSTAR |
|---|---|
| Flight time | N/A |
| Altitude | 36000 |
| Route | NYTES2 NYTES OSPRY GDUNN KNOST REMIS BLVNS BOWFN KCEEE BAYYY5 |
| Aircraft | R722/M-SDFGRWY/S |
Departure
| Time | 2026-04-23 00:06 |
|---|---|
| Airport | Orlando Executive Airport (KORL) |
Arrival
| Time | N/A |
|---|---|
| Airport | William P. Hobby Airport (KHOU) |
| Time | Latitude | Longitude | Altitude | Speed | Heading |
|---|---|---|---|---|---|
| 2026-04-22 23:31 | 28.54796 | -81.33838 | 120 ft | 0 kts | 36° |
| 2026-04-23 00:02 | 28.54800 | -81.33822 | 118 ft | 4 kts | 107° |
| 2026-04-23 00:02 | 28.54757 | -81.33800 | 117 ft | 11 kts | 154° |
| 2026-04-23 00:03 | 28.54691 | -81.33737 | 117 ft | 13 kts | 130° |
| 2026-04-23 00:03 | 28.54629 | -81.33676 | 119 ft | 9 kts | 182° |
| 2026-04-23 00:03 | 28.54577 | -81.33722 | 117 ft | 12 kts | 222° |
| 2026-04-23 00:03 | 28.54479 | -81.33818 | 116 ft | 21 kts | 219° |
| 2026-04-23 00:04 | 28.54386 | -81.33905 | 114 ft | 0 kts | 220° |
| 2026-04-23 00:04 | 28.54326 | -81.33933 | 114 ft | 14 kts | 176° |
| 2026-04-23 00:05 | 28.54298 | -81.33892 | 113 ft | 1 kts | 70° |
| 2026-04-23 00:06 | 28.54337 | -81.33786 | 113 ft | 54 kts | 67° |
| 2026-04-23 00:06 | 28.54623 | -81.33040 | 123 ft | 146 kts | 66° |
| 2026-04-23 00:06 | 28.55099 | -81.31784 | 456 ft | 188 kts | 68° |
| 2026-04-23 00:06 | 28.55593 | -81.30450 | 1749 ft | 174 kts | 69° |
| 2026-04-23 00:07 | 28.56059 | -81.29155 | 2773 ft | 185 kts | 68° |
| 2026-04-23 00:07 | 28.56653 | -81.27768 | 3511 ft | 202 kts | 64° |
| 2026-04-23 00:07 | 28.57384 | -81.26413 | 4588 ft | 200 kts | 56° |
| 2026-04-23 00:07 | 28.58198 | -81.25140 | 5740 ft | 199 kts | 54° |
| 2026-04-23 00:08 | 28.59010 | -81.23868 | 6869 ft | 197 kts | 53° |
| 2026-04-23 00:08 | 28.59917 | -81.22730 | 7818 ft | 204 kts | 40° |
| 2026-04-23 00:08 | 28.61113 | -81.21714 | 8444 ft | 224 kts | 37° |
| 2026-04-23 00:08 | 28.62405 | -81.20608 | 9114 ft | 240 kts | 37° |
| 2026-04-23 00:09 | 28.63786 | -81.19448 | 9804 ft | 252 kts | 35° |
| 2026-04-23 00:09 | 28.65466 | -81.18803 | 10450 ft | 263 kts | 6° |
| 2026-04-23 00:09 | 28.67336 | -81.18666 | 11003 ft | 275 kts | 1° |
| 2026-04-23 00:09 | 28.69287 | -81.18581 | 11519 ft | 285 kts | 1° |
| 2026-04-23 00:10 | 28.71300 | -81.18502 | 12036 ft | 293 kts | 0° |
| 2026-04-23 00:10 | 28.73305 | -81.18425 | 12539 ft | 288 kts | 359° |
| 2026-04-23 00:10 | 28.75234 | -81.18357 | 13028 ft | 282 kts | 359° |
| 2026-04-23 00:10 | 28.77234 | -81.18310 | 13547 ft | 278 kts | 356° |
| 2026-04-23 00:11 | 28.79056 | -81.18818 | 14038 ft | 268 kts | 325° |
| 2026-04-23 00:11 | 28.80268 | -81.20338 | 14519 ft | 258 kts | 302° |
| 2026-04-23 00:11 | 28.81377 | -81.21938 | 14989 ft | 254 kts | 303° |
| 2026-04-23 00:11 | 28.81950 | -81.23780 | 15468 ft | 247 kts | 268° |
| 2026-04-23 00:12 | 28.81492 | -81.25639 | 15922 ft | 246 kts | 245° |
| 2026-04-23 00:12 | 28.80638 | -81.27374 | 16290 ft | 260 kts | 241° |
| 2026-04-23 00:12 | 28.79689 | -81.29230 | 16679 ft | 282 kts | 241° |
| 2026-04-23 00:12 | 28.78672 | -81.31238 | 17111 ft | 302 kts | 241° |
| 2026-04-23 00:13 | 28.77600 | -81.33344 | 17556 ft | 307 kts | 241° |
| 2026-04-23 00:13 | 28.76515 | -81.35458 | 17977 ft | 310 kts | 241° |
| 2026-04-23 00:13 | 28.75416 | -81.37583 | 18399 ft | 311 kts | 241° |
| 2026-04-23 00:13 | 28.74293 | -81.39654 | 18743 ft | 313 kts | 237° |
| 2026-04-23 00:14 | 28.72898 | -81.41574 | 19091 ft | 316 kts | 230° |
| 2026-04-23 00:14 | 28.71341 | -81.43430 | 19445 ft | 333 kts | 229° |
| 2026-04-23 00:14 | 28.69692 | -81.45387 | 19827 ft | 351 kts | 229° |
| 2026-04-23 00:14 | 28.67957 | -81.47445 | 20219 ft | 368 kts | 229° |
| 2026-04-23 00:15 | 28.66146 | -81.49592 | 20614 ft | 383 kts | 229° |
| 2026-04-23 00:15 | 28.64278 | -81.51800 | 21013 ft | 388 kts | 229° |
| 2026-04-23 00:15 | 28.62398 | -81.54012 | 21394 ft | 390 kts | 229° |
| 2026-04-23 00:15 | 28.60521 | -81.56210 | 21774 ft | 393 kts | 229° |
| 2026-04-23 00:16 | 28.58609 | -81.58437 | 22155 ft | 395 kts | 229° |
| 2026-04-23 00:16 | 28.56678 | -81.60675 | 22541 ft | 397 kts | 229° |
| 2026-04-23 00:16 | 28.54734 | -81.62918 | 22935 ft | 398 kts | 229° |
| 2026-04-23 00:16 | 28.52777 | -81.65165 | 23327 ft | 401 kts | 229° |
| 2026-04-23 00:17 | 28.50809 | -81.67420 | 23727 ft | 402 kts | 229° |
| 2026-04-23 00:17 | 28.48834 | -81.69690 | 24068 ft | 404 kts | 229° |
| 2026-04-23 00:17 | 28.46856 | -81.71968 | 24403 ft | 406 kts | 229° |
| 2026-04-23 00:17 | 28.44872 | -81.74254 | 24749 ft | 407 kts | 230° |
| 2026-04-23 00:18 | 28.42878 | -81.76552 | 25088 ft | 409 kts | 230° |
| 2026-04-23 00:18 | 28.41557 | -81.78076 | 25321 ft | 410 kts | 230° |
| 2026-04-23 00:18 | 28.39553 | -81.80388 | 25675 ft | 411 kts | 230° |
| 2026-04-23 00:18 | 28.37544 | -81.82707 | 26031 ft | 413 kts | 230° |
| 2026-04-23 00:19 | 28.35522 | -81.85041 | 26393 ft | 414 kts | 230° |
| 2026-04-23 00:19 | 28.33499 | -81.87379 | 26760 ft | 416 kts | 230° |
| 2026-04-23 00:19 | 28.31465 | -81.89729 | 27111 ft | 418 kts | 230° |
| 2026-04-23 00:19 | 28.29417 | -81.92083 | 27488 ft | 420 kts | 230° |
| 2026-04-23 00:20 | 28.27356 | -81.94442 | 27869 ft | 421 kts | 230° |
| 2026-04-23 00:20 | 28.25287 | -81.96811 | 28254 ft | 423 kts | 230° |
| 2026-04-23 00:20 | 28.23302 | -81.99222 | 28645 ft | 422 kts | 236° |
| 2026-04-23 00:20 | 28.21720 | -82.02004 | 29036 ft | 418 kts | 246° |
| 2026-04-23 00:21 | 28.20925 | -82.06225 | 29588 ft | 413 kts | 275° |
| 2026-04-23 00:21 | 28.21343 | -82.08327 | 29892 ft | 416 kts | 290° |
| 2026-04-23 00:21 | 28.22932 | -82.11088 | 30337 ft | 428 kts | 311° |
| 2026-04-23 00:21 | 28.25378 | -82.13089 | 30753 ft | 436 kts | 322° |
| 2026-04-23 00:22 | 28.27701 | -82.15244 | 31128 ft | 428 kts | 305° |
| 2026-04-23 00:22 | 28.29124 | -82.18146 | 31534 ft | 421 kts | 285° |
| 2026-04-23 00:22 | 28.29488 | -82.21417 | 31952 ft | 420 kts | 269° |
| 2026-04-23 00:22 | 28.29207 | -82.24725 | 32363 ft | 423 kts | 262° |
| 2026-04-23 00:23 | 28.28607 | -82.28001 | 32758 ft | 425 kts | 258° |
| 2026-04-23 00:23 | 28.27853 | -82.31256 | 33154 ft | 427 kts | 255° |
| 2026-04-23 00:23 | 28.26782 | -82.34410 | 33536 ft | 432 kts | 245° |
| 2026-04-23 00:23 | 28.24999 | -82.37193 | 33952 ft | 442 kts | 232° |
| 2026-04-23 00:24 | 28.22764 | -82.39615 | 34338 ft | 448 kts | 226° |
| 2026-04-23 00:24 | 28.20338 | -82.41783 | 34670 ft | 451 kts | 223° |
| 2026-04-23 00:24 | 28.17795 | -82.43926 | 35024 ft | 448 kts | 223° |
| 2026-04-23 00:24 | 28.15411 | -82.46067 | 35354 ft | 438 kts | 232° |
| 2026-04-23 00:25 | 28.13737 | -82.48865 | 35728 ft | 427 kts | 251° |
| 2026-04-23 00:25 | 28.13077 | -82.52131 | 35968 ft | 426 kts | 266° |
| 2026-04-23 00:25 | 28.13043 | -82.55474 | 35968 ft | 425 kts | 272° |
| 2026-04-23 00:26 | 28.13326 | -82.62183 | 35963 ft | 425 kts | 271° |
| 2026-04-23 00:26 | 28.13065 | -82.68881 | 35977 ft | 426 kts | 262° |
| 2026-04-23 00:27 | 28.11933 | -82.75447 | 35989 ft | 427 kts | 261° |
| 2026-04-23 00:27 | 28.11137 | -82.82101 | 35976 ft | 426 kts | 264° |
| 2026-04-23 00:28 | 28.10374 | -82.88765 | 35968 ft | 426 kts | 270° |
| 2026-04-23 00:28 | 28.11005 | -82.95444 | 35978 ft | 427 kts | 279° |
| 2026-04-23 00:29 | 28.12058 | -83.02083 | 35977 ft | 427 kts | 277° |
| 2026-04-23 00:29 | 28.12880 | -83.08703 | 35979 ft | 428 kts | 278° |
| 2026-04-23 00:30 | 28.13836 | -83.15369 | 35983 ft | 428 kts | 277° |
| 2026-04-23 00:30 | 28.14716 | -83.22046 | 35984 ft | 429 kts | 278° |
| 2026-04-23 00:31 | 28.15633 | -83.28730 | 35977 ft | 429 kts | 277° |
| 2026-04-23 00:31 | 28.16527 | -83.35418 | 35989 ft | 429 kts | 278° |
| 2026-04-23 00:32 | 28.17428 | -83.42114 | 35981 ft | 429 kts | 277° |
| 2026-04-23 00:32 | 28.18317 | -83.48774 | 35991 ft | 430 kts | 277° |
| 2026-04-23 00:33 | 28.19209 | -83.55465 | 35989 ft | 430 kts | 277° |
| 2026-04-23 00:33 | 28.20099 | -83.62178 | 35990 ft | 427 kts | 277° |
| 2026-04-23 00:34 | 28.20978 | -83.68831 | 35995 ft | 427 kts | 277° |
| 2026-04-23 00:34 | 28.21856 | -83.75496 | 35988 ft | 427 kts | 277° |
| 2026-04-23 00:35 | 28.22730 | -83.82168 | 35986 ft | 428 kts | 277° |
| 2026-04-23 00:35 | 28.23602 | -83.88840 | 35988 ft | 428 kts | 277° |
| 2026-04-23 00:36 | 28.24471 | -83.95520 | 35982 ft | 428 kts | 277° |
| 2026-04-23 00:36 | 28.25338 | -84.02207 | 35987 ft | 429 kts | 277° |
| 2026-04-23 00:37 | 28.26181 | -84.08728 | 35977 ft | 396 kts | 277° |
| 2026-04-23 00:37 | 28.26969 | -84.14871 | 35971 ft | 398 kts | 277° |
| 2026-04-23 00:38 | 28.27768 | -84.21100 | 35968 ft | 398 kts | 277° |
| 2026-04-23 00:38 | 28.28563 | -84.27326 | 35980 ft | 399 kts | 277° |
| 2026-04-23 00:39 | 28.29400 | -84.33508 | 35977 ft | 399 kts | 278° |
| 2026-04-23 00:39 | 28.30309 | -84.39675 | 35973 ft | 397 kts | 278° |
| 2026-04-23 00:40 | 28.31220 | -84.45867 | 35960 ft | 397 kts | 278° |
| 2026-04-23 00:40 | 28.32132 | -84.52057 | 35958 ft | 397 kts | 278° |
| 2026-04-23 00:41 | 28.33043 | -84.58243 | 35961 ft | 397 kts | 278° |
| 2026-04-23 00:41 | 28.33950 | -84.64401 | 35962 ft | 398 kts | 278° |
| 2026-04-23 00:42 | 28.34863 | -84.70604 | 35958 ft | 398 kts | 278° |
| 2026-04-23 00:42 | 28.35776 | -84.76804 | 35972 ft | 398 kts | 278° |
| 2026-04-23 00:43 | 28.36690 | -84.83013 | 35972 ft | 399 kts | 278° |
| 2026-04-23 00:43 | 28.37605 | -84.89228 | 35960 ft | 399 kts | 278° |
| 2026-04-23 00:44 | 28.38521 | -84.95448 | 35970 ft | 399 kts | 279° |
| 2026-04-23 00:44 | 28.39432 | -85.01639 | 35962 ft | 400 kts | 279° |
| 2026-04-23 00:45 | 28.40350 | -85.07880 | 35968 ft | 400 kts | 278° |
| 2026-04-23 00:45 | 28.41267 | -85.14115 | 35969 ft | 401 kts | 279° |
| 2026-04-23 00:46 | 28.42190 | -85.20384 | 35971 ft | 401 kts | 279° |
| 2026-04-23 00:46 | 28.43109 | -85.26634 | 35976 ft | 402 kts | 279° |
| 2026-04-23 00:47 | 28.44032 | -85.32905 | 35971 ft | 402 kts | 279° |
| 2026-04-23 00:47 | 28.44948 | -85.39130 | 35964 ft | 402 kts | 279° |
| 2026-04-23 00:48 | 28.45871 | -85.45409 | 35977 ft | 403 kts | 279° |
| 2026-04-23 00:48 | 28.46796 | -85.51695 | 35977 ft | 403 kts | 279° |
| 2026-04-23 00:49 | 28.47721 | -85.57986 | 35967 ft | 404 kts | 279° |
| 2026-04-23 00:49 | 28.48648 | -85.64292 | 35970 ft | 404 kts | 279° |
| 2026-04-23 00:50 | 28.49575 | -85.70604 | 35971 ft | 405 kts | 279° |
| 2026-04-23 00:50 | 28.50505 | -85.76924 | 35966 ft | 405 kts | 279° |
| 2026-04-23 00:51 | 28.51427 | -85.83199 | 35968 ft | 405 kts | 279° |
| 2026-04-23 00:51 | 28.52356 | -85.89522 | 35968 ft | 406 kts | 279° |
| 2026-04-23 00:52 | 28.53288 | -85.95858 | 35973 ft | 405 kts | 279° |
| 2026-04-23 00:52 | 28.54217 | -86.02180 | 35967 ft | 405 kts | 279° |
| 2026-04-23 00:53 | 28.55148 | -86.08520 | 35967 ft | 406 kts | 279° |
| 2026-04-23 00:53 | 28.56073 | -86.14814 | 35961 ft | 406 kts | 279° |
| 2026-04-23 00:54 | 28.57005 | -86.21160 | 35962 ft | 407 kts | 279° |
| 2026-04-23 00:54 | 28.57937 | -86.27503 | 35963 ft | 406 kts | 279° |
| 2026-04-23 00:55 | 28.58870 | -86.33852 | 35961 ft | 407 kts | 279° |
| 2026-04-23 00:55 | 28.59805 | -86.40219 | 35964 ft | 408 kts | 279° |
| 2026-04-23 00:56 | 28.60740 | -86.46593 | 35966 ft | 408 kts | 279° |
| 2026-04-23 00:56 | 28.61672 | -86.52937 | 35967 ft | 409 kts | 279° |
| 2026-04-23 00:57 | 28.62611 | -86.59331 | 35959 ft | 409 kts | 279° |
| 2026-04-23 00:57 | 28.63549 | -86.65725 | 35959 ft | 409 kts | 279° |
| 2026-04-23 00:58 | 28.64485 | -86.72094 | 35961 ft | 410 kts | 279° |
| 2026-04-23 00:58 | 28.65424 | -86.78492 | 35957 ft | 410 kts | 279° |
| 2026-04-23 00:59 | 28.66366 | -86.84901 | 35963 ft | 411 kts | 279° |
| 2026-04-23 00:59 | 28.67309 | -86.91327 | 35967 ft | 412 kts | 279° |
| 2026-04-23 01:00 | 28.68256 | -86.97771 | 35956 ft | 413 kts | 279° |
| 2026-04-23 01:00 | 28.69203 | -87.04228 | 35948 ft | 413 kts | 279° |
| 2026-04-23 01:01 | 28.70153 | -87.10705 | 35953 ft | 414 kts | 279° |
| 2026-04-23 01:01 | 28.71096 | -87.17138 | 35968 ft | 415 kts | 279° |